Forside
METAR-TAF:

METAR-TAF

Lufthavne :

Newton Municipal Airport

Newton, Iowa, USA

Breddekreds: 41-41N, længdekreds: 093-01W, højde: 290 m

Aktuelle vejr

Denne rapport blev lavet for 23 minutter siden, kl. 11:15 UTC
Vind 15 kt fra sydøst
Temperatur 1°C
Fugtighed 100%
Tryk 1016 hPa
Sigt: 4.0 km
Overskyet i en højde af 400 ft
dis

METAR: KTNU 241115Z AUTO 13015KT 2 1/2SM BR OVC004 01/01 A3000 RMK A01

Tid: 05:38 (11:38 UTC)


TAF: fraværende

Vejrobservationer og prognoser fra mere end 4000 lufthavne (METAR og TAF).

De gule og røde prikker repræsenterer de meteorologiske stationer.

Flyt musen over at se navnet på stationen.

Så klik over at se vejr observationer og prognoser.

At skifte det kort: Klik på de grønne knapper med et sort kors for at zoome ind; på den grønne knap med en bindestreg for at zoome ud; eller på de grønne pile for tilstødende kort.


METAR-TAF: